sensor_id;sensor_type;location;lat;lon;timestamp;temperature;humidity
22132;DHT22;11232;51.748;19.390;2023-03-22T00:02:11;5.50;99.90
22132;DHT22;11232;51.748;19.390;2023-03-22T01:12:56;5.30;99.90
22132;DHT22;11232;51.748;19.390;2023-03-22T01:15:22;5.00;99.90
22132;DHT22;11232;51.748;19.390;2023-03-22T01:17:51;4.60;99.90
22132;DHT22;11232;51.748;19.390;2023-03-22T01:20:16;5.30;99.90
22132;DHT22;11232;51.748;19.390;2023-03-22T01:22:42;5.20;99.90
22132;DHT22;11232;51.748;19.390;2023-03-22T14:18:26;16.90;99.90
22132;DHT22;11232;51.748;19.390;2023-03-22T14:20:58;16.30;99.90
22132;DHT22;11232;51.748;19.390;2023-03-22T14:23:27;16.30;99.90
22132;DHT22;11232;51.748;19.390;2023-03-22T14:26:07;16.50;99.90
22132;DHT22;11232;51.748;19.390;2023-03-22T14:28:38;16.30;99.90
22132;DHT22;11232;51.748;19.390;2023-03-22T14:31:17;16.30;99.90
22132;DHT22;11232;51.748;19.390;2023-03-22T14:33:44;16.00;99.90
22132;DHT22;11232;51.748;19.390;2023-03-22T14:36:12;16.30;99.90
22132;DHT22;11232;51.748;19.390;2023-03-22T14:38:41;15.50;99.90
22132;DHT22;11232;51.748;19.390;2023-03-22T14:41:14;15.90;99.90
22132;DHT22;11232;51.748;19.390;2023-03-22T14:43:42;15.50;99.90
22132;DHT22;11232;51.748;19.390;2023-03-22T14:46:20;15.60;99.90
22132;DHT22;11232;51.748;19.390;2023-03-22T14:48:51;15.60;99.90
22132;DHT22;11232;51.748;19.390;2023-03-22T14:51:22;15.80;99.90
22132;DHT22;11232;51.748;19.390;2023-03-22T14:53:49;15.90;99.90
22132;DHT22;11232;51.748;19.390;2023-03-22T14:56:17;16.10;99.90
22132;DHT22;11232;51.748;19.390;2023-03-22T14:58:45;15.70;99.90
22132;DHT22;11232;51.748;19.390;2023-03-22T15:01:27;15.60;99.90
22132;DHT22;11232;51.748;19.390;2023-03-22T15:03:57;15.60;99.90
22132;DHT22;11232;51.748;19.390;2023-03-22T15:06:25;15.50;99.90
22132;DHT22;11232;51.748;19.390;2023-03-22T15:08:51;15.70;99.90
22132;DHT22;11232;51.748;19.390;2023-03-22T15:11:18;15.60;99.90
22132;DHT22;11232;51.748;19.390;2023-03-22T15:13:45;15.20;99.90
22132;DHT22;11232;51.748;19.390;2023-03-22T15:16:20;15.50;99.90
22132;DHT22;11232;51.748;19.390;2023-03-22T15:18:49;15.70;99.90
22132;DHT22;11232;51.748;19.390;2023-03-22T15:21:15;15.80;99.90
22132;DHT22;11232;51.748;19.390;2023-03-22T15:23:55;15.70;99.90
22132;DHT22;11232;51.748;19.390;2023-03-22T15:26:25;16.00;99.90
22132;DHT22;11232;51.748;19.390;2023-03-22T15:28:55;15.90;99.90
22132;DHT22;11232;51.748;19.390;2023-03-22T15:31:37;15.50;99.90
22132;DHT22;11232;51.748;19.390;2023-03-22T15:34:07;15.50;99.90
22132;DHT22;11232;51.748;19.390;2023-03-22T15:36:36;15.30;99.90
22132;DHT22;11232;51.748;19.390;2023-03-22T15:39:33;15.40;99.90
22132;DHT22;11232;51.748;19.390;2023-03-22T15:42:18;15.40;99.90
22132;DHT22;11232;51.748;19.390;2023-03-22T15:47:17;15.60;99.90
22132;DHT22;11232;51.748;19.390;2023-03-22T15:49:50;15.20;99.90
22132;DHT22;11232;51.748;19.390;2023-03-22T15:52:29;15.20;99.90
22132;DHT22;11232;51.748;19.390;2023-03-22T15:55:00;15.30;99.90
22132;DHT22;11232;51.748;19.390;2023-03-22T15:57:40;15.40;99.90
22132;DHT22;11232;51.748;19.390;2023-03-22T16:02:49;15.30;99.90
22132;DHT22;11232;51.748;19.390;2023-03-22T16:05:16;15.10;99.90
22132;DHT22;11232;51.748;19.390;2023-03-22T16:07:43;15.00;99.90
22132;DHT22;11232;51.748;19.390;2023-03-22T16:10:17;15.50;99.90
22132;DHT22;11232;51.748;19.390;2023-03-22T16:12:43;15.20;99.90
22132;DHT22;11232;51.748;19.390;2023-03-22T16:15:15;15.10;99.90
22132;DHT22;11232;51.748;19.390;2023-03-22T16:17:41;14.90;99.90
22132;DHT22;11232;51.748;19.390;2023-03-22T16:20:07;15.40;99.90
22132;DHT22;11232;51.748;19.390;2023-03-22T16:22:33;15.00;99.90
22132;DHT22;11232;51.748;19.390;2023-03-22T16:24:59;14.90;99.90
22132;DHT22;11232;51.748;19.390;2023-03-22T16:27:26;14.80;99.90
22132;DHT22;11232;51.748;19.390;2023-03-22T16:32:27;14.80;99.90
22132;DHT22;11232;51.748;19.390;2023-03-22T16:34:53;15.10;99.90
22132;DHT22;11232;51.748;19.390;2023-03-22T16:37:22;14.80;99.90
22132;DHT22;11232;51.748;19.390;2023-03-22T16:39:48;14.40;99.90
22132;DHT22;11232;51.748;19.390;2023-03-22T16:42:20;14.60;99.90
22132;DHT22;11232;51.748;19.390;2023-03-22T16:44:47;15.10;99.90
22132;DHT22;11232;51.748;19.390;2023-03-22T16:47:24;15.20;99.90
22132;DHT22;11232;51.748;19.390;2023-03-22T16:49:52;14.50;99.90
22132;DHT22;11232;51.748;19.390;2023-03-22T16:52:21;14.90;99.90
22132;DHT22;11232;51.748;19.390;2023-03-22T16:54:49;14.80;99.90
22132;DHT22;11232;51.748;19.390;2023-03-22T16:57:17;14.30;99.90
22132;DHT22;11232;51.748;19.390;2023-03-22T16:59:43;14.30;99.90
22132;DHT22;11232;51.748;19.390;2023-03-22T17:02:13;14.30;99.90
22132;DHT22;11232;51.748;19.390;2023-03-22T17:04:39;14.40;99.90
22132;DHT22;11232;51.748;19.390;2023-03-22T17:09:38;14.20;99.90
22132;DHT22;11232;51.748;19.390;2023-03-22T17:12:03;14.00;99.90
22132;DHT22;11232;51.748;19.390;2023-03-22T17:16:55;14.10;99.90
22132;DHT22;11232;51.748;19.390;2023-03-22T17:21:46;14.10;99.90
22132;DHT22;11232;51.748;19.390;2023-03-22T17:33:56;13.90;99.90
22132;DHT22;11232;51.748;19.390;2023-03-22T17:36:22;14.30;99.90
22132;DHT22;11232;51.748;19.390;2023-03-22T17:38:48;13.70;99.90
22132;DHT22;11232;51.748;19.390;2023-03-22T17:41:13;14.20;99.90
22132;DHT22;11232;51.748;19.390;2023-03-22T17:43:40;13.90;99.90
22132;DHT22;11232;51.748;19.390;2023-03-22T17:46:06;13.70;99.90
22132;DHT22;11232;51.748;19.390;2023-03-22T17:48:32;13.80;99.90
22132;DHT22;11232;51.748;19.390;2023-03-22T17:50:58;13.60;99.90
22132;DHT22;11232;51.748;19.390;2023-03-22T17:53:23;14.10;99.90
22132;DHT22;11232;51.748;19.390;2023-03-22T17:55:49;13.70;99.90
22132;DHT22;11232;51.748;19.390;2023-03-22T17:58:15;13.60;99.90
22132;DHT22;11232;51.748;19.390;2023-03-22T18:00:40;13.90;99.90
22132;DHT22;11232;51.748;19.390;2023-03-22T18:03:06;13.90;99.90
22132;DHT22;11232;51.748;19.390;2023-03-22T18:05:31;13.70;99.90
22132;DHT22;11232;51.748;19.390;2023-03-22T18:07:57;13.40;99.90
22132;DHT22;11232;51.748;19.390;2023-03-22T18:10:23;13.40;99.90
22132;DHT22;11232;51.748;19.390;2023-03-22T18:12:49;13.60;99.90
22132;DHT22;11232;51.748;19.390;2023-03-22T18:15:16;13.20;99.90
22132;DHT22;11232;51.748;19.390;2023-03-22T18:20:11;13.20;99.90
22132;DHT22;11232;51.748;19.390;2023-03-22T18:22:37;13.30;99.90
22132;DHT22;11232;51.748;19.390;2023-03-22T18:25:03;13.20;99.90
22132;DHT22;11232;51.748;19.390;2023-03-22T18:27:29;13.20;99.90
22132;DHT22;11232;51.748;19.390;2023-03-22T18:29:55;13.50;99.90
22132;DHT22;11232;51.748;19.390;2023-03-22T18:32:20;13.30;99.90
22132;DHT22;11232;51.748;19.390;2023-03-22T18:34:46;13.20;99.90
22132;DHT22;11232;51.748;19.390;2023-03-22T18:37:11;13.40;99.90
22132;DHT22;11232;51.748;19.390;2023-03-22T18:39:39;13.10;99.90
22132;DHT22;11232;51.748;19.390;2023-03-22T18:42:06;13.10;99.90
22132;DHT22;11232;51.748;19.390;2023-03-22T18:44:32;13.10;99.90
22132;DHT22;11232;51.748;19.390;2023-03-22T18:46:57;12.80;99.90
22132;DHT22;11232;51.748;19.390;2023-03-22T18:49:23;12.80;99.90
22132;DHT22;11232;51.748;19.390;2023-03-22T18:51:48;13.10;99.90
22132;DHT22;11232;51.748;19.390;2023-03-22T18:54:14;12.90;99.90
22132;DHT22;11232;51.748;19.390;2023-03-22T18:56:40;12.80;99.90
22132;DHT22;11232;51.748;19.390;2023-03-22T18:59:05;12.70;99.90
22132;DHT22;11232;51.748;19.390;2023-03-22T19:01:31;12.80;99.90
22132;DHT22;11232;51.748;19.390;2023-03-22T19:03:57;13.00;99.90
22132;DHT22;11232;51.748;19.390;2023-03-22T19:08:49;12.70;99.90
22132;DHT22;11232;51.748;19.390;2023-03-22T19:11:15;13.10;99.90
22132;DHT22;11232;51.748;19.390;2023-03-22T19:13:42;12.80;99.90
22132;DHT22;11232;51.748;19.390;2023-03-22T19:16:10;12.60;99.90
22132;DHT22;11232;51.748;19.390;2023-03-22T19:18:36;12.50;99.90
22132;DHT22;11232;51.748;19.390;2023-03-22T19:21:03;12.90;99.90
22132;DHT22;11232;51.748;19.390;2023-03-22T19:23:30;12.60;99.90
22132;DHT22;11232;51.748;19.390;2023-03-22T19:25:56;12.80;99.90
22132;DHT22;11232;51.748;19.390;2023-03-22T19:28:23;12.60;99.90
22132;DHT22;11232;51.748;19.390;2023-03-22T19:30:53;12.40;99.90
22132;DHT22;11232;51.748;19.390;2023-03-22T19:33:20;12.80;99.90
22132;DHT22;11232;51.748;19.390;2023-03-22T19:35:50;12.40;99.90
22132;DHT22;11232;51.748;19.390;2023-03-22T19:38:16;12.40;99.90
22132;DHT22;11232;51.748;19.390;2023-03-22T19:40:43;12.70;99.90
22132;DHT22;11232;51.748;19.390;2023-03-22T19:43:09;12.70;99.90
22132;DHT22;11232;51.748;19.390;2023-03-22T19:45:42;12.40;99.90
22132;DHT22;11232;51.748;19.390;2023-03-22T19:48:09;12.30;99.90
22132;DHT22;11232;51.748;19.390;2023-03-22T19:53:02;12.30;99.90
22132;DHT22;11232;51.748;19.390;2023-03-22T19:55:28;12.30;99.90
22132;DHT22;11232;51.748;19.390;2023-03-22T19:57:53;12.50;99.90
22132;DHT22;11232;51.748;19.390;2023-03-22T20:00:26;12.20;99.90
22132;DHT22;11232;51.748;19.390;2023-03-22T20:05:18;12.30;99.90
22132;DHT22;11232;51.748;19.390;2023-03-22T20:07:44;12.50;99.90
22132;DHT22;11232;51.748;19.390;2023-03-22T20:10:10;12.40;99.90
22132;DHT22;11232;51.748;19.390;2023-03-22T20:12:39;12.00;99.90
22132;DHT22;11232;51.748;19.390;2023-03-22T20:15:05;12.70;99.90
22132;DHT22;11232;51.748;19.390;2023-03-22T20:20:04;12.00;99.90
22132;DHT22;11232;51.748;19.390;2023-03-22T20:22:30;12.00;99.90
22132;DHT22;11232;51.748;19.390;2023-03-22T20:24:55;11.90;99.90
22132;DHT22;11232;51.748;19.390;2023-03-22T21:06:22;11.50;99.90
22132;DHT22;11232;51.748;19.390;2023-03-22T21:08:47;11.70;99.90
22132;DHT22;11232;51.748;19.390;2023-03-22T21:11:13;12.10;99.90
22132;DHT22;11232;51.748;19.390;2023-03-22T21:13:40;11.50;99.90
22132;DHT22;11232;51.748;19.390;2023-03-22T21:21:03;11.30;99.90
22132;DHT22;11232;51.748;19.390;2023-03-22T21:23:28;11.30;99.90
22132;DHT22;11232;51.748;19.390;2023-03-22T21:25:55;11.60;99.90
22132;DHT22;11232;51.748;19.390;2023-03-22T21:28:21;11.90;99.90
22132;DHT22;11232;51.748;19.390;2023-03-22T21:30:54;11.60;99.90
22132;DHT22;11232;51.748;19.390;2023-03-22T21:33:20;11.10;99.90
22132;DHT22;11232;51.748;19.390;2023-03-22T21:35:48;10.60;99.90
22132;DHT22;11232;51.748;19.390;2023-03-22T21:38:16;11.50;99.90
22132;DHT22;11232;51.748;19.390;2023-03-22T21:41:02;11.40;99.90
22132;DHT22;11232;51.748;19.390;2023-03-22T21:43:30;11.50;99.90
22132;DHT22;11232;51.748;19.390;2023-03-22T21:48:28;11.10;99.90
22132;DHT22;11232;51.748;19.390;2023-03-22T21:53:22;11.20;99.90
22132;DHT22;11232;51.748;19.390;2023-03-22T21:55:49;11.20;99.90
22132;DHT22;11232;51.748;19.390;2023-03-22T21:58:16;11.70;99.90
22132;DHT22;11232;51.748;19.390;2023-03-22T22:00:42;11.10;99.90
22132;DHT22;11232;51.748;19.390;2023-03-22T22:08:02;11.10;99.90
22132;DHT22;11232;51.748;19.390;2023-03-22T22:10:29;11.50;99.90
22132;DHT22;11232;51.748;19.390;2023-03-22T22:12:56;11.50;99.90
22132;DHT22;11232;51.748;19.390;2023-03-22T22:15:23;11.40;99.90
22132;DHT22;11232;51.748;19.390;2023-03-22T22:17:49;11.00;99.90
22132;DHT22;11232;51.748;19.390;2023-03-22T22:20:15;11.00;99.90
22132;DHT22;11232;51.748;19.390;2023-03-22T22:22:43;10.90;99.90
22132;DHT22;11232;51.748;19.390;2023-03-22T22:25:12;11.30;99.90
22132;DHT22;11232;51.748;19.390;2023-03-22T22:30:05;11.00;99.90
22132;DHT22;11232;51.748;19.390;2023-03-22T22:37:26;10.90;99.90
22132;DHT22;11232;51.748;19.390;2023-03-22T22:44:43;11.00;99.90
22132;DHT22;11232;51.748;19.390;2023-03-22T22:49:35;10.90;99.90
22132;DHT22;11232;51.748;19.390;2023-03-22T22:52:01;10.90;99.90
22132;DHT22;11232;51.748;19.390;2023-03-22T22:54:26;10.80;99.90
22132;DHT22;11232;51.748;19.390;2023-03-22T23:01:44;11.00;99.90
22132;DHT22;11232;51.748;19.390;2023-03-22T23:04:09;10.90;99.90
22132;DHT22;11232;51.748;19.390;2023-03-22T23:06:35;11.10;99.90
22132;DHT22;11232;51.748;19.390;2023-03-22T23:09:01;11.60;99.90
22132;DHT22;11232;51.748;19.390;2023-03-22T23:11:27;11.20;99.90
22132;DHT22;11232;51.748;19.390;2023-03-22T23:14:02;10.90;99.90
22132;DHT22;11232;51.748;19.390;2023-03-22T23:16:31;11.10;99.90
22132;DHT22;11232;51.748;19.390;2023-03-22T23:23:59;11.00;99.90
22132;DHT22;11232;51.748;19.390;2023-03-22T23:26:25;11.00;99.90
22132;DHT22;11232;51.748;19.390;2023-03-22T23:28:55;10.90;99.90
22132;DHT22;11232;51.748;19.390;2023-03-22T23:31:27;11.10;99.90
22132;DHT22;11232;51.748;19.390;2023-03-22T23:33:57;10.90;99.90
22132;DHT22;11232;51.748;19.390;2023-03-22T23:39:00;10.90;99.90
22132;DHT22;11232;51.748;19.390;2023-03-22T23:41:30;10.90;99.90
22132;DHT22;11232;51.748;19.390;2023-03-22T23:43:59;10.90;99.90
22132;DHT22;11232;51.748;19.390;2023-03-22T23:46:25;11.30;99.90
22132;DHT22;11232;51.748;19.390;2023-03-22T23:48:52;10.80;99.90
22132;DHT22;11232;51.748;19.390;2023-03-22T23:51:18;10.80;99.90
22132;DHT22;11232;51.748;19.390;2023-03-22T23:53:45;10.70;99.90
22132;DHT22;11232;51.748;19.390;2023-03-22T23:56:16;10.60;99.90
22132;DHT22;11232;51.748;19.390;2023-03-22T23:58:43;11.10;99.90
